createdAt,value
2023-01-18T00:00:36.866Z,985.81
2023-01-18T00:01:36.768Z,985.81
2023-01-18T00:02:36.771Z,985.75
2023-01-18T00:03:36.676Z,985.75
2023-01-18T00:04:36.711Z,985.77
2023-01-18T00:05:36.675Z,985.74
2023-01-18T00:06:36.675Z,985.69
2023-01-18T00:07:36.664Z,985.68
2023-01-18T00:08:36.727Z,985.68
2023-01-18T00:09:36.697Z,985.63
2023-01-18T00:10:36.641Z,985.63
2023-01-18T00:11:36.665Z,985.55
2023-01-18T00:12:36.688Z,985.61
2023-01-18T00:13:36.641Z,985.63
2023-01-18T00:14:36.614Z,985.65
2023-01-18T00:15:36.648Z,985.59
2023-01-18T00:16:36.745Z,985.56
2023-01-18T00:17:36.635Z,985.55
2023-01-18T00:18:36.631Z,985.53
2023-01-18T00:19:36.610Z,985.53
2023-01-18T00:20:36.686Z,985.54
2023-01-18T00:21:36.630Z,985.57
2023-01-18T00:22:36.589Z,985.46
2023-01-18T00:23:36.665Z,985.50
2023-01-18T00:24:36.621Z,985.55
2023-01-18T00:25:36.651Z,985.52
2023-01-18T00:26:36.602Z,985.53
2023-01-18T00:27:36.574Z,985.49
2023-01-18T00:28:36.714Z,985.53
2023-01-18T00:29:36.561Z,985.48
2023-01-18T00:30:36.622Z,985.49
2023-01-18T00:31:36.667Z,985.48
2023-01-18T00:32:36.630Z,985.53
2023-01-18T00:33:36.698Z,985.51
2023-01-18T00:34:36.614Z,985.57
2023-01-18T00:35:36.608Z,985.56
2023-01-18T00:36:36.616Z,985.50
2023-01-18T00:37:36.525Z,985.50
2023-01-18T00:38:36.625Z,985.51
2023-01-18T00:39:36.496Z,985.53
2023-01-18T00:40:36.494Z,985.57
2023-01-18T00:41:36.482Z,985.59
2023-01-18T00:42:36.521Z,985.59
2023-01-18T00:43:36.457Z,985.60
2023-01-18T00:44:36.591Z,985.60
2023-01-18T00:45:36.675Z,985.60
2023-01-18T00:46:36.570Z,985.56
2023-01-18T00:47:36.557Z,985.53
2023-01-18T00:48:36.463Z,985.58
2023-01-18T00:49:36.455Z,985.59
2023-01-18T00:50:36.452Z,985.64
2023-01-18T00:51:37.000Z,985.67
2023-01-18T00:52:36.439Z,985.70
2023-01-18T00:53:36.440Z,985.71
2023-01-18T00:54:36.398Z,985.72
2023-01-18T00:55:36.413Z,985.72
2023-01-18T00:56:36.394Z,985.75
2023-01-18T00:57:36.393Z,985.72
2023-01-18T00:58:36.384Z,985.75
2023-01-18T00:59:36.440Z,985.77
2023-01-18T01:00:36.365Z,985.80
2023-01-18T01:01:36.392Z,985.79
2023-01-18T01:02:36.381Z,985.84
2023-01-18T01:03:36.381Z,985.79
2023-01-18T01:04:36.362Z,985.79
2023-01-18T01:05:36.351Z,985.83
2023-01-18T01:06:36.329Z,985.84
2023-01-18T01:07:36.321Z,985.86
2023-01-18T01:08:36.361Z,985.85
2023-01-18T01:09:36.371Z,985.83
2023-01-18T01:10:36.316Z,985.88
2023-01-18T01:11:36.323Z,985.88
2023-01-18T01:12:36.323Z,985.89
2023-01-18T01:13:36.314Z,985.91
2023-01-18T01:14:36.869Z,985.87
2023-01-18T01:15:36.314Z,985.99
2023-01-18T01:16:36.303Z,985.94
2023-01-18T01:17:36.286Z,986.01
2023-01-18T01:18:36.267Z,986.08
2023-01-18T01:19:36.282Z,986.11
2023-01-18T01:20:36.290Z,986.10
2023-01-18T01:21:36.292Z,986.13
2023-01-18T01:22:36.260Z,986.13
2023-01-18T01:23:36.236Z,986.11
2023-01-18T01:24:36.236Z,986.16
2023-01-18T01:25:36.245Z,986.14
2023-01-18T01:26:36.241Z,986.15
2023-01-18T01:27:36.242Z,986.21
2023-01-18T01:28:36.243Z,986.26
2023-01-18T01:29:36.239Z,986.25
2023-01-18T01:30:36.229Z,986.28
2023-01-18T01:31:36.218Z,986.29
2023-01-18T01:32:36.190Z,986.33
2023-01-18T01:33:36.205Z,986.35
2023-01-18T01:34:36.177Z,986.35
2023-01-18T01:35:36.181Z,986.35
2023-01-18T01:36:36.178Z,986.39
2023-01-18T01:37:36.179Z,986.34
2023-01-18T01:38:36.188Z,986.36
2023-01-18T01:39:36.172Z,986.37
2023-01-18T01:40:36.151Z,986.35
2023-01-18T01:41:36.206Z,986.34
2023-01-18T01:42:36.144Z,986.38
2023-01-18T01:43:36.156Z,986.44
2023-01-18T01:44:36.134Z,986.44
2023-01-18T01:45:36.190Z,986.45
2023-01-18T01:46:36.161Z,986.41
2023-01-18T01:47:36.145Z,986.49
2023-01-18T01:48:36.099Z,986.45
2023-01-18T01:49:36.191Z,986.44
2023-01-18T01:50:36.129Z,986.42
2023-01-18T01:51:36.084Z,986.45
2023-01-18T01:52:36.103Z,986.49
2023-01-18T01:53:36.094Z,986.47
2023-01-18T01:54:36.073Z,986.48
2023-01-18T01:55:36.076Z,986.48
2023-01-18T01:56:36.057Z,986.59
2023-01-18T01:57:36.094Z,986.62
2023-01-18T01:58:36.061Z,986.67
2023-01-18T01:59:36.050Z,986.66
2023-01-18T02:00:36.055Z,986.69
2023-01-18T02:01:36.189Z,986.66
2023-01-18T02:02:36.223Z,986.67
2023-01-18T02:03:36.052Z,986.62
2023-01-18T02:04:36.044Z,986.69
2023-01-18T02:05:36.090Z,986.70
2023-01-18T02:06:36.024Z,986.70
2023-01-18T02:07:36.041Z,986.73
2023-01-18T02:08:36.014Z,986.70
2023-01-18T02:09:36.017Z,986.65
2023-01-18T02:10:36.030Z,986.69
2023-01-18T02:11:36.011Z,986.65
2023-01-18T02:12:36.005Z,986.63
2023-01-18T02:13:36.003Z,986.61
2023-01-18T02:14:36.011Z,986.66
2023-01-18T02:15:35.963Z,986.62
2023-01-18T02:16:35.974Z,986.64
2023-01-18T02:17:35.953Z,986.65
2023-01-18T02:18:35.972Z,986.68
2023-01-18T02:19:35.953Z,986.62
2023-01-18T02:20:35.951Z,986.67
2023-01-18T02:21:35.925Z,986.62
2023-01-18T02:22:35.928Z,986.58
2023-01-18T02:23:35.921Z,986.61
2023-01-18T02:24:35.913Z,986.54
2023-01-18T02:25:35.926Z,986.50
2023-01-18T02:26:35.947Z,986.48
2023-01-18T02:27:35.979Z,986.51
2023-01-18T02:28:35.921Z,986.48
2023-01-18T02:29:35.890Z,986.45
2023-01-18T02:30:35.913Z,986.42
2023-01-18T02:31:35.882Z,986.44
2023-01-18T02:32:35.899Z,986.46
2023-01-18T02:33:35.885Z,986.51
2023-01-18T02:34:35.945Z,986.56
2023-01-18T02:35:35.925Z,986.63
2023-01-18T02:36:35.972Z,986.63
2023-01-18T02:37:36.028Z,986.65
2023-01-18T02:38:35.835Z,986.67
2023-01-18T02:39:35.869Z,986.62
2023-01-18T02:40:35.930Z,986.62
2023-01-18T02:41:35.860Z,986.60
2023-01-18T02:42:35.929Z,986.56
2023-01-18T02:43:35.881Z,986.55
2023-01-18T02:44:35.933Z,986.58
2023-01-18T02:45:36.074Z,986.60
2023-01-18T02:46:35.848Z,986.63
2023-01-18T02:47:36.030Z,986.64
2023-01-18T02:48:35.850Z,986.71
2023-01-18T02:49:35.886Z,986.65
2023-01-18T02:50:35.791Z,986.69
2023-01-18T02:51:35.809Z,986.63
2023-01-18T02:52:35.819Z,986.65
2023-01-18T02:53:35.854Z,986.65
2023-01-18T02:54:35.766Z,986.65
2023-01-18T02:55:35.794Z,986.61
2023-01-18T02:56:35.784Z,986.68
2023-01-18T02:57:35.739Z,986.67
2023-01-18T02:58:35.759Z,986.67
2023-01-18T02:59:35.758Z,986.70
2023-01-18T03:00:35.731Z,986.65
2023-01-18T03:01:35.955Z,986.68
2023-01-18T03:02:35.792Z,986.67
2023-01-18T03:03:35.720Z,986.62
2023-01-18T03:04:35.700Z,986.67
2023-01-18T03:05:35.702Z,986.66
2023-01-18T03:06:35.770Z,986.67
2023-01-18T03:07:35.735Z,986.71
2023-01-18T03:08:35.776Z,986.68
2023-01-18T03:09:35.870Z,986.73
2023-01-18T03:10:35.735Z,986.68
2023-01-18T03:11:35.704Z,986.63
2023-01-18T03:12:35.700Z,986.58
2023-01-18T03:13:35.736Z,986.64
2023-01-18T03:14:35.652Z,986.59
2023-01-18T03:15:35.695Z,986.61
2023-01-18T03:16:35.696Z,986.65
2023-01-18T03:17:35.627Z,986.64
2023-01-18T03:18:35.654Z,986.60
2023-01-18T03:19:35.647Z,986.63
2023-01-18T03:20:35.611Z,986.63
2023-01-18T03:21:35.614Z,986.61
2023-01-18T03:22:35.608Z,986.62
2023-01-18T03:23:35.620Z,986.63
2023-01-18T03:24:35.627Z,986.63
2023-01-18T03:25:35.603Z,986.64
2023-01-18T03:26:35.658Z,986.67
2023-01-18T03:27:35.600Z,986.70
2023-01-18T03:28:35.554Z,986.69
2023-01-18T03:29:35.555Z,986.65
2023-01-18T03:30:35.619Z,986.71
2023-01-18T03:31:35.561Z,986.77
2023-01-18T03:32:35.549Z,986.72
2023-01-18T03:33:35.573Z,986.66
2023-01-18T03:34:35.557Z,986.71
2023-01-18T03:35:35.533Z,986.69
2023-01-18T03:36:35.540Z,986.70
2023-01-18T03:37:35.518Z,986.74
2023-01-18T03:38:35.513Z,986.74
2023-01-18T03:39:35.556Z,986.78
2023-01-18T03:40:35.536Z,986.76
2023-01-18T03:41:35.525Z,986.80
2023-01-18T03:42:35.527Z,986.80
2023-01-18T03:43:35.488Z,986.79
2023-01-18T03:44:35.497Z,986.74
2023-01-18T03:45:35.479Z,986.74
2023-01-18T03:46:35.517Z,986.65
2023-01-18T03:47:35.469Z,986.66
2023-01-18T03:48:35.488Z,986.66
2023-01-18T03:49:35.525Z,986.65
2023-01-18T03:50:35.494Z,986.65
2023-01-18T03:51:35.470Z,986.62
2023-01-18T03:52:35.483Z,986.58
2023-01-18T03:53:35.438Z,986.57
2023-01-18T03:54:35.430Z,986.59
2023-01-18T03:55:35.429Z,986.58
2023-01-18T03:56:35.442Z,986.59
2023-01-18T03:57:35.440Z,986.57
2023-01-18T03:58:35.440Z,986.62
2023-01-18T03:59:35.403Z,986.64
2023-01-18T04:00:35.406Z,986.70
2023-01-18T04:01:35.485Z,986.70
2023-01-18T04:02:35.457Z,986.72
2023-01-18T04:03:35.436Z,986.74
2023-01-18T04:04:35.393Z,986.78
2023-01-18T04:05:35.400Z,986.74
2023-01-18T04:06:35.386Z,986.74
2023-01-18T04:07:35.394Z,986.72
2023-01-18T04:08:35.345Z,986.75
2023-01-18T04:09:35.387Z,986.80
2023-01-18T04:10:35.339Z,986.75
2023-01-18T04:11:35.340Z,986.76
2023-01-18T04:12:35.350Z,986.78
2023-01-18T04:13:35.334Z,986.76
2023-01-18T04:14:35.332Z,986.72
2023-01-18T04:15:35.328Z,986.71
2023-01-18T04:16:35.917Z,986.75
2023-01-18T04:17:35.542Z,986.76
2023-01-18T04:18:35.368Z,986.72
2023-01-18T04:19:35.328Z,986.79
2023-01-18T04:20:35.306Z,986.78
2023-01-18T04:21:35.431Z,986.76
2023-01-18T04:22:35.324Z,986.72
2023-01-18T04:23:35.288Z,986.78
2023-01-18T04:24:35.344Z,986.78
2023-01-18T04:25:35.306Z,986.73
2023-01-18T04:26:35.356Z,986.75
2023-01-18T04:27:35.324Z,986.76
2023-01-18T04:28:35.320Z,986.72
2023-01-18T04:29:35.250Z,986.69
2023-01-18T04:30:35.264Z,986.64
2023-01-18T04:31:35.307Z,986.68
2023-01-18T04:32:35.239Z,986.70
2023-01-18T04:33:35.233Z,986.72
2023-01-18T04:34:35.245Z,986.74
2023-01-18T04:35:35.226Z,986.75
2023-01-18T04:36:35.222Z,986.75
2023-01-18T04:37:35.202Z,986.78
2023-01-18T04:38:35.202Z,986.79
2023-01-18T04:39:35.209Z,986.78
2023-01-18T04:40:35.192Z,986.78
2023-01-18T04:41:35.209Z,986.78
2023-01-18T04:42:35.183Z,986.80
2023-01-18T04:43:35.162Z,986.86
2023-01-18T04:44:35.163Z,986.85
2023-01-18T04:45:35.173Z,986.86
2023-01-18T04:46:35.190Z,986.87
2023-01-18T04:47:35.246Z,986.82
2023-01-18T04:48:35.193Z,986.84
2023-01-18T04:49:35.156Z,986.84
2023-01-18T04:50:35.135Z,986.83
2023-01-18T04:51:35.130Z,986.75
2023-01-18T04:52:35.142Z,986.82
2023-01-18T04:53:35.108Z,986.79
2023-01-18T04:54:35.127Z,986.83
2023-01-18T04:55:35.127Z,986.82
2023-01-18T04:59:12.936Z,986.79
2023-01-18T05:02:17.240Z,986.85
2023-01-18T05:03:28.359Z,986.85
2023-01-18T05:04:17.644Z,986.80
2023-01-18T05:05:17.653Z,986.87
2023-01-18T05:06:16.878Z,986.85
2023-01-18T05:07:16.849Z,986.88
2023-01-18T05:08:16.870Z,986.88
2023-01-18T05:09:16.872Z,986.92
2023-01-18T05:10:17.627Z,986.97
2023-01-18T05:11:17.431Z,986.93
2023-01-18T05:12:17.332Z,986.95
2023-01-18T05:13:16.841Z,986.91
2023-01-18T05:14:16.836Z,986.90
2023-01-18T05:15:16.816Z,986.90
2023-01-18T05:16:16.840Z,986.99
2023-01-18T05:17:16.829Z,986.95
2023-01-18T05:18:16.814Z,986.98
2023-01-18T05:19:16.792Z,986.96
2023-01-18T05:20:16.801Z,986.99
2023-01-18T05:21:16.821Z,987.04
2023-01-18T05:22:16.779Z,987.04
2023-01-18T05:23:16.786Z,987.07
2023-01-18T05:24:16.754Z,987.01
2023-01-18T05:25:16.751Z,987.04
2023-01-18T05:26:16.774Z,987.01
2023-01-18T05:27:16.738Z,987.04
2023-01-18T05:28:16.750Z,987.05
2023-01-18T05:29:16.744Z,987.09
2023-01-18T05:30:16.756Z,987.10
2023-01-18T05:31:16.756Z,987.13
2023-01-18T05:32:16.728Z,987.10
2023-01-18T05:33:16.736Z,987.11
2023-01-18T05:34:16.725Z,987.06
2023-01-18T05:35:16.709Z,987.07
2023-01-18T05:36:16.726Z,987.09
2023-01-18T05:37:16.709Z,987.08
2023-01-18T05:38:16.699Z,987.14
2023-01-18T05:39:16.734Z,987.14
2023-01-18T05:40:16.682Z,987.17
2023-01-18T05:41:16.675Z,987.19
2023-01-18T05:42:16.686Z,987.20
2023-01-18T05:43:16.678Z,987.23
2023-01-18T05:44:16.671Z,987.20
2023-01-18T05:45:16.649Z,987.19
2023-01-18T05:46:16.641Z,987.18
2023-01-18T05:47:16.671Z,987.21
2023-01-18T05:48:16.631Z,987.19
2023-01-18T05:49:16.627Z,987.23
2023-01-18T05:50:16.642Z,987.22
2023-01-18T05:51:16.696Z,987.22
2023-01-18T05:52:16.613Z,987.15
2023-01-18T05:53:16.624Z,987.21
2023-01-18T05:54:16.600Z,987.18
2023-01-18T05:55:16.619Z,987.21
2023-01-18T05:56:16.598Z,987.26
2023-01-18T05:57:16.590Z,987.30
2023-01-18T05:58:16.592Z,987.35
2023-01-18T05:59:16.576Z,987.38
2023-01-18T06:00:16.581Z,987.42
2023-01-18T06:01:16.616Z,987.43
2023-01-18T06:02:16.652Z,987.48
2023-01-18T06:03:16.569Z,987.51
2023-01-18T06:04:16.603Z,987.47
2023-01-18T06:05:16.582Z,987.46
2023-01-18T06:06:16.558Z,987.45
2023-01-18T06:07:16.554Z,987.46
2023-01-18T06:08:16.581Z,987.42
2023-01-18T06:09:16.531Z,987.42
2023-01-18T06:10:16.524Z,987.43
2023-01-18T06:11:16.552Z,987.48
2023-01-18T06:12:16.563Z,987.47
2023-01-18T06:13:16.506Z,987.55
2023-01-18T06:14:16.503Z,987.48
2023-01-18T06:15:16.508Z,987.54
2023-01-18T06:16:16.543Z,987.54
2023-01-18T06:17:16.527Z,987.54
2023-01-18T06:18:16.482Z,987.58
2023-01-18T06:19:16.480Z,987.59
2023-01-18T06:20:16.482Z,987.55
2023-01-18T06:21:16.471Z,987.57
2023-01-18T06:22:16.464Z,987.50
2023-01-18T06:23:16.475Z,987.56
2023-01-18T06:24:16.489Z,987.54
2023-01-18T06:25:16.468Z,987.58
2023-01-18T06:26:16.451Z,987.58
2023-01-18T06:27:16.461Z,987.56
2023-01-18T06:28:16.457Z,987.62
2023-01-18T06:29:16.449Z,987.60
2023-01-18T06:30:16.431Z,987.56
2023-01-18T06:31:16.515Z,987.69
2023-01-18T06:32:16.436Z,987.64
2023-01-18T06:33:16.427Z,987.69
2023-01-18T06:34:16.434Z,987.69
2023-01-18T06:35:16.410Z,987.72
2023-01-18T06:36:16.396Z,987.75
2023-01-18T06:37:16.424Z,987.73
2023-01-18T06:38:16.395Z,987.76
2023-01-18T06:39:16.386Z,987.73
2023-01-18T06:40:16.387Z,987.77
2023-01-18T06:41:16.392Z,987.73
2023-01-18T06:42:16.372Z,987.76
2023-01-18T06:43:16.370Z,987.78
2023-01-18T06:44:16.412Z,987.78
2023-01-18T06:45:16.349Z,987.76
2023-01-18T06:46:16.432Z,987.83
2023-01-18T06:47:16.341Z,987.79
2023-01-18T06:48:16.338Z,987.76
2023-01-18T06:49:16.354Z,987.76
2023-01-18T06:50:16.336Z,987.78
2023-01-18T06:51:16.357Z,987.81
2023-01-18T06:52:16.321Z,987.78
2023-01-18T06:53:16.322Z,987.82
2023-01-18T06:54:16.315Z,987.86
2023-01-18T06:55:16.321Z,987.85
2023-01-18T06:56:16.297Z,987.86
2023-01-18T06:57:16.295Z,987.89
2023-01-18T06:58:16.311Z,987.89
2023-01-18T06:59:16.300Z,987.87
2023-01-18T07:00:16.296Z,987.91
2023-01-18T07:01:16.397Z,987.86
2023-01-18T07:02:16.281Z,987.86
2023-01-18T07:03:16.263Z,987.87
2023-01-18T07:04:16.293Z,987.87
2023-01-18T07:05:16.272Z,987.90
2023-01-18T07:06:16.270Z,987.88
2023-01-18T07:07:16.256Z,987.85
2023-01-18T07:08:16.241Z,987.90
2023-01-18T07:09:16.242Z,987.93
2023-01-18T07:10:16.855Z,987.89
2023-01-18T07:11:16.264Z,987.89
2023-01-18T07:12:16.224Z,987.89
2023-01-18T07:13:16.220Z,987.97
2023-01-18T07:14:16.211Z,987.99
2023-01-18T07:15:21.586Z,987.97
2023-01-18T07:16:16.316Z,987.97
2023-01-18T07:17:16.240Z,988.01
2023-01-18T07:18:16.196Z,988.03
2023-01-18T07:19:16.181Z,988.02
2023-01-18T07:20:16.191Z,988.05
2023-01-18T07:21:16.190Z,988.03
2023-01-18T07:22:16.200Z,988.04
2023-01-18T07:23:16.169Z,988.06
2023-01-18T07:24:16.160Z,988.10
2023-01-18T07:25:16.184Z,988.16
2023-01-18T07:26:16.181Z,988.13
2023-01-18T07:27:16.159Z,988.13
2023-01-18T07:28:16.176Z,988.10
2023-01-18T07:29:16.159Z,988.02
2023-01-18T07:30:16.133Z,988.06
2023-01-18T07:31:16.141Z,988.13
2023-01-18T07:32:16.149Z,988.08
2023-01-18T07:33:16.134Z,988.13
2023-01-18T07:34:16.129Z,988.14
2023-01-18T07:35:16.108Z,988.17
2023-01-18T07:36:16.115Z,988.19
2023-01-18T07:37:16.107Z,988.21
2023-01-18T07:38:16.102Z,988.23
2023-01-18T07:39:16.108Z,988.29
2023-01-18T07:40:16.094Z,988.26
2023-01-18T07:41:16.078Z,988.27
2023-01-18T07:42:16.077Z,988.24
2023-01-18T07:43:16.094Z,988.27
2023-01-18T07:44:16.067Z,988.24
2023-01-18T07:45:16.110Z,988.25
2023-01-18T07:46:16.100Z,988.23
2023-01-18T07:47:16.064Z,988.25
2023-01-18T07:48:16.079Z,988.28
2023-01-18T07:49:16.063Z,988.23
2023-01-18T07:50:16.036Z,988.26
2023-01-18T07:51:16.027Z,988.25
2023-01-18T07:52:16.041Z,988.28
2023-01-18T07:53:16.033Z,988.25
2023-01-18T07:54:16.082Z,988.25
2023-01-18T07:55:16.053Z,988.22
2023-01-18T07:56:16.016Z,988.27
2023-01-18T07:57:16.010Z,988.22
2023-01-18T07:58:16.013Z,988.17
2023-01-18T07:59:16.001Z,988.20
2023-01-18T08:00:16.002Z,988.21
2023-01-18T08:01:16.169Z,988.15
2023-01-18T08:02:16.059Z,988.16
2023-01-18T08:03:15.993Z,988.12
2023-01-18T08:04:15.975Z,988.08
2023-01-18T08:05:15.970Z,988.11
2023-01-18T08:06:15.973Z,988.19
2023-01-18T08:07:15.956Z,988.20
2023-01-18T08:08:15.981Z,988.22
2023-01-18T08:09:15.953Z,988.18
2023-01-18T08:10:15.942Z,988.21
2023-01-18T08:11:15.937Z,988.21
2023-01-18T08:12:15.931Z,988.18
2023-01-18T08:13:15.952Z,988.23
2023-01-18T08:14:15.919Z,988.26
2023-01-18T08:15:15.945Z,988.22
2023-01-18T08:16:15.961Z,988.22
2023-01-18T08:17:15.933Z,988.28
2023-01-18T08:18:15.905Z,988.25
2023-01-18T08:19:15.923Z,988.30
2023-01-18T08:20:15.911Z,988.30
2023-01-18T08:21:15.916Z,988.29
2023-01-18T08:22:15.893Z,988.31
2023-01-18T08:23:15.889Z,988.30
2023-01-18T08:24:15.883Z,988.33
2023-01-18T08:25:15.896Z,988.34
2023-01-18T08:26:15.879Z,988.35
2023-01-18T08:27:15.871Z,988.34
2023-01-18T08:28:15.879Z,988.30
2023-01-18T08:29:15.853Z,988.34
2023-01-18T08:30:15.856Z,988.31
2023-01-18T08:31:15.917Z,988.32
2023-01-18T08:32:15.854Z,988.35
2023-01-18T08:33:15.838Z,988.33
2023-01-18T08:34:15.859Z,988.33
2023-01-18T08:35:15.834Z,988.34
2023-01-18T08:36:15.833Z,988.34
2023-01-18T08:37:15.818Z,988.32
2023-01-18T08:38:15.838Z,988.33
2023-01-18T08:39:15.800Z,988.31
2023-01-18T08:40:15.821Z,988.36
2023-01-18T08:41:15.798Z,988.38
2023-01-18T08:42:15.937Z,988.38
2023-01-18T08:43:15.800Z,988.39
2023-01-18T08:44:15.790Z,988.41
2023-01-18T08:45:15.788Z,988.44
2023-01-18T08:46:15.843Z,988.46
2023-01-18T08:47:15.773Z,988.46
2023-01-18T08:48:15.783Z,988.47
2023-01-18T08:49:15.770Z,988.49
2023-01-18T08:50:15.779Z,988.46
2023-01-18T08:51:15.764Z,988.50
2023-01-18T08:52:15.747Z,988.50
2023-01-18T08:53:15.752Z,988.57
2023-01-18T08:54:15.749Z,988.49
2023-01-18T08:55:15.750Z,988.56
2023-01-18T08:56:15.742Z,988.57
2023-01-18T08:57:15.729Z,988.62
2023-01-18T08:58:15.735Z,988.64
2023-01-18T08:59:15.769Z,988.68
2023-01-18T09:00:15.724Z,988.64
2023-01-18T09:01:15.862Z,988.64
2023-01-18T09:02:15.769Z,988.66
2023-01-18T09:03:15.752Z,988.71
2023-01-18T09:04:15.705Z,988.63
2023-01-18T09:05:15.721Z,988.69
2023-01-18T09:06:15.712Z,988.62
2023-01-18T09:07:15.692Z,988.66
2023-01-18T09:08:15.672Z,988.70
2023-01-18T09:09:15.680Z,988.68
2023-01-18T09:10:15.666Z,988.68
2023-01-18T09:11:15.684Z,988.65
2023-01-18T09:12:15.684Z,988.72
2023-01-18T09:13:15.670Z,988.71
2023-01-18T09:14:15.699Z,988.71
2023-01-18T09:15:15.681Z,988.69
2023-01-18T09:16:15.657Z,988.67
2023-01-18T09:17:15.653Z,988.70
2023-01-18T09:18:15.654Z,988.80
2023-01-18T09:19:15.645Z,988.75
2023-01-18T09:20:18.669Z,988.81
2023-01-18T09:21:15.620Z,988.78
2023-01-18T09:22:15.639Z,988.77
2023-01-18T09:23:15.627Z,988.81
2023-01-18T09:24:15.636Z,988.78
2023-01-18T09:25:15.605Z,988.83
2023-01-18T09:26:15.608Z,988.79
2023-01-18T09:27:15.597Z,988.80
2023-01-18T09:28:15.628Z,988.82
2023-01-18T09:29:15.599Z,988.80
2023-01-18T09:30:15.592Z,988.81
2023-01-18T09:31:15.655Z,988.80
2023-01-18T09:32:15.582Z,988.80
2023-01-18T09:33:15.568Z,988.79
2023-01-18T09:34:20.145Z,988.85
2023-01-18T09:35:15.579Z,988.86
2023-01-18T09:36:15.558Z,988.83
2023-01-18T09:37:15.546Z,988.86
2023-01-18T09:38:15.553Z,988.84
2023-01-18T09:39:15.540Z,988.89
2023-01-18T09:40:15.555Z,988.91
2023-01-18T09:41:15.575Z,988.90
2023-01-18T09:42:15.524Z,988.94
2023-01-18T09:43:15.527Z,988.89
2023-01-18T09:44:15.566Z,988.90
2023-01-18T09:45:15.514Z,988.85
2023-01-18T09:46:15.589Z,988.90
2023-01-18T09:47:15.527Z,988.91
2023-01-18T09:48:15.515Z,988.95
2023-01-18T09:49:15.507Z,988.92
2023-01-18T09:50:15.529Z,988.99
2023-01-18T09:51:15.514Z,988.97
2023-01-18T09:52:15.531Z,989.01
2023-01-18T09:53:15.492Z,988.95
2023-01-18T09:54:15.487Z,988.96
2023-01-18T09:55:15.478Z,988.97
2023-01-18T09:56:15.466Z,988.98
2023-01-18T09:57:15.543Z,989.00
2023-01-18T09:58:15.531Z,989.00
2023-01-18T09:59:15.473Z,989.03
2023-01-18T10:00:15.456Z,989.00
2023-01-18T10:01:15.590Z,989.03
2023-01-18T10:02:15.583Z,989.02
2023-01-18T10:03:15.451Z,988.99
2023-01-18T10:04:15.488Z,988.97
2023-01-18T10:05:15.449Z,988.98
2023-01-18T10:06:15.445Z,988.98
2023-01-18T10:07:15.444Z,989.00
2023-01-18T10:08:15.436Z,988.98
2023-01-18T10:09:15.443Z,989.00
2023-01-18T10:10:15.439Z,988.97
2023-01-18T10:11:15.438Z,988.98
2023-01-18T10:12:15.425Z,988.90
2023-01-18T10:13:15.408Z,988.96
2023-01-18T10:14:15.403Z,988.93
2023-01-18T10:15:15.407Z,988.95
2023-01-18T10:16:15.476Z,988.94
2023-01-18T10:17:15.410Z,988.91
2023-01-18T10:18:15.406Z,988.95
2023-01-18T10:19:15.403Z,988.94
2023-01-18T10:20:15.396Z,988.98
2023-01-18T10:21:15.391Z,989.02
2023-01-18T10:22:15.793Z,989.04
2023-01-18T10:23:15.366Z,989.05
2023-01-18T10:24:15.380Z,989.01
2023-01-18T10:25:15.371Z,989.00
2023-01-18T10:26:15.417Z,989.04
2023-01-18T10:27:15.357Z,989.04
2023-01-18T10:28:15.355Z,989.05
2023-01-18T10:29:15.345Z,989.05
2023-01-18T10:30:15.339Z,989.06
2023-01-18T10:31:15.472Z,989.02
2023-01-18T10:32:15.330Z,989.03
2023-01-18T10:33:15.335Z,989.02
2023-01-18T10:34:15.336Z,989.03
2023-01-18T10:35:15.334Z,989.02
2023-01-18T10:36:15.350Z,989.03
2023-01-18T10:37:15.320Z,989.04
2023-01-18T10:38:15.325Z,988.99
2023-01-18T10:39:15.315Z,989.04
2023-01-18T10:40:15.310Z,989.02
2023-01-18T10:41:15.319Z,989.05
2023-01-18T10:42:15.310Z,989.05
2023-01-18T10:43:15.297Z,989.08
2023-01-18T10:44:15.304Z,989.08
2023-01-18T10:45:15.296Z,989.11
2023-01-18T10:46:15.286Z,989.09
2023-01-18T10:47:17.606Z,989.06
2023-01-18T10:48:15.295Z,989.11
2023-01-18T10:49:15.288Z,989.11
2023-01-18T10:50:15.279Z,989.11
2023-01-18T10:51:15.261Z,989.09
2023-01-18T10:52:15.268Z,989.08
2023-01-18T10:53:15.283Z,989.05
2023-01-18T10:54:15.266Z,989.02
2023-01-18T10:55:15.272Z,989.08
2023-01-18T10:56:15.261Z,989.01
2023-01-18T10:57:15.260Z,989.06
2023-01-18T10:58:15.237Z,989.10
2023-01-18T10:59:15.254Z,989.12
2023-01-18T11:00:15.242Z,989.15
2023-01-18T11:01:15.308Z,989.16
2023-01-18T11:02:15.277Z,989.17
2023-01-18T11:04:54.589Z,989.14
2023-01-18T11:05:54.590Z,989.14
2023-01-18T11:06:54.695Z,989.12
2023-01-18T11:07:55.191Z,989.15
2023-01-18T11:08:54.630Z,989.12
2023-01-18T11:09:54.566Z,989.12
2023-01-18T11:12:44.532Z,989.12
2023-01-18T11:14:05.639Z,989.12
2023-01-18T11:14:44.535Z,989.15
2023-01-18T11:15:45.147Z,989.15
2023-01-18T11:16:44.611Z,989.17
2023-01-18T11:17:44.526Z,989.18
2023-01-18T11:18:44.494Z,989.17
2023-01-18T11:19:44.493Z,989.23
2023-01-18T11:20:44.510Z,989.22
2023-01-18T11:21:44.500Z,989.24
2023-01-18T11:22:44.469Z,989.22
2023-01-18T11:23:44.493Z,989.25
2023-01-18T11:24:44.499Z,989.24
2023-01-18T11:25:44.503Z,989.20
2023-01-18T11:26:44.466Z,989.24
2023-01-18T11:27:44.458Z,989.24
2023-01-18T11:28:44.496Z,989.27
2023-01-18T11:29:44.459Z,989.26
2023-01-18T11:30:44.440Z,989.27
2023-01-18T11:31:44.468Z,989.28
2023-01-18T11:32:46.651Z,989.29
2023-01-18T11:33:44.439Z,989.29
2023-01-18T11:34:44.450Z,989.25
2023-01-18T11:35:44.437Z,989.32
2023-01-18T11:36:44.435Z,989.29
2023-01-18T11:37:44.437Z,989.29
2023-01-18T11:38:44.434Z,989.31
2023-01-18T11:39:45.607Z,989.32
2023-01-18T11:40:44.452Z,989.30
2023-01-18T11:41:46.653Z,989.32
2023-01-18T11:42:44.410Z,989.31
2023-01-18T11:43:44.411Z,989.28
2023-01-18T11:44:44.428Z,989.34
2023-01-18T11:45:45.530Z,989.34
2023-01-18T11:46:44.391Z,989.32
2023-01-18T11:47:44.431Z,989.33
2023-01-18T11:48:44.370Z,989.31
2023-01-18T11:49:44.416Z,989.31
2023-01-18T11:50:44.400Z,989.33
2023-01-18T11:51:45.801Z,989.30
2023-01-18T11:52:45.151Z,989.28
2023-01-18T11:53:44.378Z,989.36
2023-01-18T11:54:44.462Z,989.30
2023-01-18T11:55:44.365Z,989.32
2023-01-18T11:56:44.385Z,989.35
2023-01-18T11:57:45.358Z,989.42
2023-01-18T11:58:44.341Z,989.33
2023-01-18T11:59:44.356Z,989.33
2023-01-18T12:00:44.362Z,989.36
2023-01-18T12:01:44.339Z,989.37
2023-01-18T12:02:44.341Z,989.34
2023-01-18T12:03:44.536Z,989.36
2023-01-18T12:04:44.595Z,989.39
2023-01-18T12:05:45.827Z,989.32
2023-01-18T12:06:44.365Z,989.37
2023-01-18T12:07:44.434Z,989.42
2023-01-18T12:08:44.306Z,989.39
2023-01-18T12:09:44.308Z,989.44
2023-01-18T12:10:44.316Z,989.44
2023-01-18T12:11:45.725Z,989.46
2023-01-18T12:12:44.331Z,989.44
2023-01-18T12:13:44.294Z,989.48
2023-01-18T12:14:44.306Z,989.53
2023-01-18T12:15:44.303Z,989.52
2023-01-18T12:16:44.353Z,989.57
2023-01-18T12:17:46.053Z,989.52
2023-01-18T12:18:44.286Z,989.55
2023-01-18T12:19:44.272Z,989.52
2023-01-18T12:20:44.281Z,989.51
2023-01-18T12:21:44.317Z,989.56
2023-01-18T12:22:44.280Z,989.53
2023-01-18T12:23:44.255Z,989.53
2023-01-18T12:24:45.970Z,989.55
2023-01-18T12:25:44.287Z,989.57
2023-01-18T12:26:44.235Z,989.55
2023-01-18T12:27:44.443Z,989.58
2023-01-18T12:28:44.379Z,989.59
2023-01-18T12:29:44.264Z,989.55
2023-01-18T12:30:44.319Z,989.56
2023-01-18T12:31:44.242Z,989.64
2023-01-18T12:32:44.257Z,989.59
2023-01-18T12:33:44.327Z,989.62
2023-01-18T12:34:44.221Z,989.58
2023-01-18T12:35:44.273Z,989.62
2023-01-18T12:36:44.212Z,989.61